Waterloo, Ohio
Current Conditions -  °F | °C
As of 12:51 AM on Tuesday 27 Jan 2015 (Local Time) from KHTS Reporting Station
Overcast Overcast  
Wind Chill: 16°   Ceiling: 2800
Heat Index: 22°   Visibility: 10mi
Dew Point: 18°   Wind: 5mph
Humidity: 85%   Direction: 340°NNW
Pressure: 29.92"   Gusts: NA
Location:  38.7°N, 82.47°W
Report Text: KHTS 270551Z 34004KT 10SM OVC028 M06/M08 A2992 RMK AO2 SLP140 T10561078 11033 21056 58004
Loading
Personal Weather Stations






























Interactive Weather Map New forecast layout! Learn more

10-Day Weather Forecast

Advertisements
Track Severe Weather on mobile